createdAt,value
2022-08-02T00:01:01.660Z,97803.16
2022-08-02T00:03:29.952Z,97799.59
2022-08-02T00:05:59.021Z,97808.22
2022-08-02T00:08:28.910Z,97805.00
2022-08-02T00:10:57.105Z,97799.59
2022-08-02T00:13:25.317Z,97803.31
2022-08-02T00:15:53.796Z,97808.56
2022-08-02T00:18:22.027Z,97800.28
2022-08-02T00:20:50.205Z,97809.31
2022-08-02T00:27:09.106Z,97813.94
2022-08-02T00:29:50.491Z,97809.53
2022-08-02T00:32:20.534Z,97820.53
2022-08-02T00:34:48.733Z,97815.78
2022-08-02T00:37:17.227Z,97825.91
2022-08-02T00:39:45.491Z,97826.88
2022-08-02T00:42:16.942Z,97821.91
2022-08-02T00:44:45.137Z,97816.81
2022-08-02T00:47:14.966Z,97808.66
2022-08-02T00:49:47.897Z,97803.63
2022-08-02T00:52:16.147Z,97799.59
2022-08-02T00:54:44.366Z,97796.41
2022-08-02T00:57:12.553Z,97789.22
2022-08-02T00:59:42.543Z,97798.06
2022-08-02T01:02:11.141Z,97791.03
2022-08-02T01:04:39.537Z,97794.19
2022-08-02T01:07:12.628Z,97804.69
2022-08-02T01:09:43.195Z,97792.88
2022-08-02T01:12:12.253Z,97798.91
2022-08-02T01:14:42.205Z,97805.69
2022-08-02T01:17:12.026Z,97805.69
2022-08-02T01:23:01.171Z,97803.78
2022-08-02T01:25:39.159Z,97799.25
2022-08-02T01:28:23.370Z,97793.50
2022-08-02T01:30:51.971Z,97789.41
2022-08-02T01:33:21.928Z,97795.00
2022-08-02T01:35:54.277Z,97789.28
2022-08-02T01:38:25.376Z,97789.34
2022-08-02T01:40:53.567Z,97783.31
2022-08-02T01:43:23.176Z,97781.94
2022-08-02T01:45:51.388Z,97776.50
2022-08-02T01:48:19.628Z,97776.06
2022-08-02T01:50:47.831Z,97770.47
2022-08-02T01:53:16.036Z,97777.06
2022-08-02T01:55:58.304Z,97779.63
2022-08-02T01:58:30.016Z,97777.75
2022-08-02T02:00:59.111Z,97783.16
2022-08-02T02:03:27.416Z,97784.34
2022-08-02T02:05:57.675Z,97781.47
2022-08-02T02:08:27.926Z,97780.63
2022-08-02T02:10:56.342Z,97780.75
2022-08-02T02:13:33.583Z,97773.69
2022-08-02T02:16:04.745Z,97762.66
2022-08-02T02:18:33.223Z,97773.78
2022-08-02T02:21:01.433Z,97773.13
2022-08-02T02:23:32.142Z,97772.13
2022-08-02T02:26:04.584Z,97766.69
2022-08-02T02:28:34.184Z,97772.97
2022-08-02T02:31:05.154Z,97764.84
2022-08-02T02:33:33.396Z,97765.06
2022-08-02T02:36:02.061Z,97763.22
2022-08-02T02:38:32.717Z,97766.44
2022-08-02T02:41:02.284Z,97756.81
2022-08-02T02:43:30.490Z,97756.81
2022-08-02T02:45:58.694Z,97760.16
2022-08-02T02:48:28.504Z,97754.59
2022-08-02T02:50:56.787Z,97757.47
2022-08-02T02:53:24.975Z,97752.03
2022-08-02T02:56:02.502Z,97756.41
2022-08-02T02:58:31.838Z,97756.44
2022-08-02T03:01:13.873Z,97751.84
2022-08-02T03:03:44.588Z,97755.84
2022-08-02T03:06:14.971Z,97752.69
2022-08-02T03:08:44.086Z,97754.88
2022-08-02T03:11:12.289Z,97747.44
2022-08-02T03:13:40.825Z,97750.38
2022-08-02T03:16:09.037Z,97754.66
2022-08-02T03:18:37.976Z,97753.84
2022-08-02T03:21:09.458Z,97744.22
2022-08-02T03:23:37.645Z,97748.13
2022-08-02T03:26:05.881Z,97749.28
2022-08-02T03:28:34.452Z,97754.34
2022-08-02T03:31:02.749Z,97757.06
2022-08-02T03:33:31.425Z,97753.00
2022-08-02T03:36:00.672Z,97748.94
2022-08-02T03:38:31.324Z,97747.59
2022-08-02T03:40:59.685Z,97756.47
2022-08-02T03:43:28.619Z,97766.28
2022-08-02T03:45:57.153Z,97757.22
2022-08-02T03:48:34.946Z,97768.38
2022-08-02T03:51:03.852Z,97766.63
2022-08-02T03:53:33.963Z,97762.38
2022-08-02T03:56:02.204Z,97744.53
2022-08-02T03:58:30.708Z,97743.69
2022-08-02T04:00:59.282Z,97746.56
2022-08-02T04:03:27.673Z,97741.59
2022-08-02T04:06:05.477Z,97750.09
2022-08-02T04:08:38.386Z,97747.19
2022-08-02T04:11:20.988Z,97760.22
2022-08-02T04:13:49.809Z,97763.56
2022-08-02T04:16:21.813Z,97756.09
2022-08-02T04:18:53.200Z,97757.66
2022-08-02T04:21:22.245Z,97765.72
2022-08-02T04:23:51.945Z,97766.63
2022-08-02T04:26:21.885Z,97769.19
2022-08-02T04:28:55.489Z,97777.56
2022-08-02T04:31:23.743Z,97775.13
2022-08-02T04:33:52.310Z,97768.22
2022-08-02T04:36:31.234Z,97771.25
2022-08-02T04:39:01.545Z,97777.38
2022-08-02T04:41:43.785Z,97767.41
2022-08-02T04:44:12.376Z,97766.25
2022-08-02T04:46:40.704Z,97770.81
2022-08-02T04:49:09.065Z,97781.16
2022-08-02T04:51:38.444Z,97782.50
2022-08-02T04:54:09.904Z,97785.72
2022-08-02T04:56:38.637Z,97784.72
2022-08-02T04:59:07.234Z,97782.53
2022-08-02T05:01:35.863Z,97772.22
2022-08-02T05:04:04.208Z,97778.69
2022-08-02T05:06:32.513Z,97775.81
2022-08-02T05:09:01.139Z,97772.25
2022-08-02T05:11:36.519Z,97777.34
2022-08-02T05:14:05.799Z,97787.16
2022-08-02T05:16:34.329Z,97790.38
2022-08-02T05:19:02.768Z,97779.72
2022-08-02T05:21:31.861Z,97775.81
2022-08-02T05:24:01.631Z,97781.75
2022-08-02T05:26:31.273Z,97786.88
2022-08-02T05:28:59.507Z,97776.34
2022-08-02T05:31:28.025Z,97783.31
2022-08-02T05:33:56.269Z,97779.06
2022-08-02T05:36:24.525Z,97775.03
2022-08-02T05:38:59.686Z,97772.16
2022-08-02T05:41:34.812Z,97770.44
2022-08-02T05:44:03.060Z,97779.59
2022-08-02T05:46:31.608Z,97778.91
2022-08-02T05:48:59.876Z,97775.00
2022-08-02T05:51:32.465Z,97782.97
2022-08-02T05:54:04.017Z,97779.53
2022-08-02T05:56:36.459Z,97773.91
2022-08-02T06:02:13.440Z,97775.13
2022-08-02T06:04:53.003Z,97775.25
2022-08-02T06:07:21.258Z,97773.19
2022-08-02T06:09:50.122Z,97774.88
2022-08-02T06:12:19.807Z,97767.56
2022-08-02T06:14:51.396Z,97769.59
2022-08-02T06:17:23.033Z,97778.41
2022-08-02T06:19:52.699Z,97775.75
2022-08-02T06:22:34.781Z,97774.63
2022-08-02T06:25:06.303Z,97771.97
2022-08-02T06:27:36.194Z,97775.72
2022-08-02T06:30:04.848Z,97773.59
2022-08-02T06:32:33.494Z,97768.78
2022-08-02T06:35:01.937Z,97771.53
2022-08-02T06:37:37.029Z,97759.66
2022-08-02T06:40:08.174Z,97774.69
2022-08-02T06:42:43.152Z,97763.84
2022-08-02T06:45:11.443Z,97767.91
2022-08-02T06:47:39.786Z,97762.53
2022-08-02T06:50:09.052Z,97751.78
2022-08-02T06:52:37.370Z,97759.03
2022-08-02T06:55:06.666Z,97758.84
2022-08-02T06:57:35.092Z,97757.66
2022-08-02T07:00:08.839Z,97753.84
2022-08-02T07:02:37.224Z,97754.97
2022-08-02T07:05:05.954Z,97756.72
2022-08-02T07:07:34.268Z,97760.56
2022-08-02T07:10:02.506Z,97761.75
2022-08-02T07:12:31.719Z,97761.41
2022-08-02T07:15:00.403Z,97760.22
2022-08-02T07:17:30.151Z,97757.81
2022-08-02T07:19:58.943Z,97763.19
2022-08-02T07:22:28.864Z,97751.53
2022-08-02T07:24:57.861Z,97756.22
2022-08-02T07:27:26.251Z,97756.69
2022-08-02T07:29:54.850Z,97746.75
2022-08-02T07:32:24.267Z,97758.47
2022-08-02T07:34:55.085Z,97747.47
2022-08-02T07:37:35.264Z,97743.53
2022-08-02T07:40:15.373Z,97735.31
2022-08-02T07:42:48.801Z,97740.47
2022-08-02T07:45:17.181Z,97738.28
2022-08-02T07:47:45.758Z,97738.94
2022-08-02T07:50:16.875Z,97741.44
2022-08-02T07:52:46.012Z,97756.50
2022-08-02T07:55:16.091Z,97741.94
2022-08-02T07:57:46.655Z,97742.88
2022-08-02T08:00:17.559Z,97740.56
2022-08-02T08:02:46.380Z,97741.59
2022-08-02T08:05:16.159Z,97746.00
2022-08-02T08:07:44.614Z,97744.63
2022-08-02T08:10:12.995Z,97738.03
2022-08-02T08:12:42.296Z,97739.72
2022-08-02T08:15:11.778Z,97740.94
2022-08-02T08:17:40.102Z,97733.38
2022-08-02T08:20:14.018Z,97735.59
2022-08-02T08:22:46.959Z,97734.72
2022-08-02T08:25:15.327Z,97734.28
2022-08-02T08:27:50.142Z,97741.53
2022-08-02T08:30:18.582Z,97726.50
2022-08-02T08:32:47.202Z,97733.22
2022-08-02T08:35:15.542Z,97728.56
2022-08-02T08:37:45.366Z,97728.25
2022-08-02T08:40:19.471Z,97728.81
2022-08-02T08:42:48.995Z,97724.69
2022-08-02T08:45:18.232Z,97718.75
2022-08-02T08:47:46.872Z,97717.34
2022-08-02T08:50:22.865Z,97717.16
2022-08-02T08:53:07.686Z,97715.44
2022-08-02T08:55:36.733Z,97717.81
2022-08-02T08:58:06.471Z,97712.34
2022-08-02T09:00:35.937Z,97714.69
2022-08-02T09:03:04.868Z,97709.22
2022-08-02T09:05:33.202Z,97719.75
2022-08-02T09:08:03.058Z,97720.19
2022-08-02T09:10:34.729Z,97720.34
2022-08-02T09:13:38.811Z,97716.56
2022-08-02T09:16:11.327Z,97718.56
2022-08-02T09:18:43.965Z,97713.06
2022-08-02T09:21:12.481Z,97707.38
2022-08-02T09:23:43.004Z,97713.50
2022-08-02T09:26:15.085Z,97709.06
2022-08-02T09:28:48.925Z,97706.34
2022-08-02T09:31:27.163Z,97703.59
2022-08-02T09:34:27.191Z,97711.41
2022-08-02T09:36:56.148Z,97702.56
2022-08-02T09:39:26.581Z,97710.97
2022-08-02T09:41:55.173Z,97709.25
2022-08-02T09:44:40.929Z,97705.50
2022-08-02T09:47:31.114Z,97701.25
2022-08-02T09:53:00.157Z,97700.44
2022-08-02T09:55:28.728Z,97703.31
2022-08-02T09:57:57.012Z,97709.66
2022-08-02T10:00:37.428Z,97702.47
2022-08-02T10:03:22.181Z,97705.41
2022-08-02T10:06:09.904Z,97710.38
2022-08-02T10:08:41.153Z,97706.38
2022-08-02T10:11:09.446Z,97696.84
2022-08-02T10:13:37.948Z,97697.03
2022-08-02T10:16:07.534Z,97701.28
2022-08-02T10:18:40.640Z,97701.66
2022-08-02T10:21:16.041Z,97697.38
2022-08-02T10:23:46.746Z,97698.66
2022-08-02T10:26:17.681Z,97683.63
2022-08-02T10:28:48.157Z,97685.34
2022-08-02T10:31:17.262Z,97678.47
2022-08-02T10:33:50.252Z,97674.50
2022-08-02T10:36:18.828Z,97680.47
2022-08-02T10:39:06.260Z,97677.19
2022-08-02T10:41:45.492Z,97671.84
2022-08-02T10:44:24.306Z,97669.09
2022-08-02T10:46:53.892Z,97673.38
2022-08-02T10:49:39.866Z,97677.69
2022-08-02T10:52:10.460Z,97679.53
2022-08-02T10:54:41.430Z,97682.97
2022-08-02T10:57:25.291Z,97672.66
2022-08-02T11:00:12.608Z,97667.97
2022-08-02T11:03:04.796Z,97664.69
2022-08-02T11:05:42.987Z,97660.28
2022-08-02T11:08:19.969Z,97665.78
2022-08-02T11:10:49.865Z,97652.09
2022-08-02T11:13:19.817Z,97657.34
2022-08-02T11:15:51.096Z,97650.13
2022-08-02T11:18:43.672Z,97647.19
2022-08-02T11:21:22.937Z,97647.59
2022-08-02T11:23:51.642Z,97648.97
2022-08-02T11:26:46.608Z,97649.81
2022-08-02T11:29:15.882Z,97650.09
2022-08-02T11:31:46.229Z,97643.84
2022-08-02T11:34:26.618Z,97641.00
2022-08-02T11:37:03.423Z,97640.94
2022-08-02T11:39:31.908Z,97640.44
2022-08-02T11:42:01.959Z,97645.88
2022-08-02T13:35:18.038Z,97590.69
2022-08-02T13:37:47.967Z,97586.69
2022-08-02T13:40:23.464Z,97584.25
2022-08-02T13:42:53.917Z,97579.78
2022-08-02T13:45:22.628Z,97576.06
2022-08-02T13:47:57.623Z,97577.41
2022-08-02T13:50:34.778Z,97578.06
2022-08-02T13:53:03.376Z,97568.56
2022-08-02T13:55:31.961Z,97568.75
2022-08-02T13:58:09.332Z,97562.22
2022-08-02T14:00:37.610Z,97567.94
2022-08-02T14:03:07.550Z,97559.31
2022-08-02T14:05:47.179Z,97556.19
2022-08-02T14:08:18.009Z,97560.06
2022-08-02T14:10:47.103Z,97562.44
2022-08-02T14:13:15.496Z,97566.84
2022-08-02T14:15:44.210Z,97557.50
2022-08-02T14:18:12.552Z,97558.63
2022-08-02T14:20:42.286Z,97562.84
2022-08-02T14:23:10.576Z,97553.66
2022-08-02T14:25:38.852Z,97548.38
2022-08-02T14:28:11.148Z,97553.88
2022-08-02T14:30:42.557Z,97558.72
2022-08-02T14:33:11.125Z,97542.84
2022-08-02T14:35:39.677Z,97554.41
2022-08-02T14:38:09.417Z,97556.84
2022-08-02T14:40:37.728Z,97552.41
2022-08-02T14:43:06.218Z,97541.59
2022-08-02T14:45:40.760Z,97548.19
2022-08-02T14:48:11.366Z,97538.31
2022-08-02T14:50:39.950Z,97532.66
2022-08-02T14:53:12.383Z,97543.50
2022-08-02T14:55:44.837Z,97531.13
2022-08-02T14:58:13.334Z,97536.00
2022-08-02T15:00:43.786Z,97525.78
2022-08-02T15:03:13.236Z,97527.34
2022-08-02T15:05:41.618Z,97520.06
2022-08-02T15:08:11.267Z,97523.41
2022-08-02T15:10:45.727Z,97521.03
2022-08-02T15:13:14.073Z,97518.13
2022-08-02T15:15:43.740Z,97518.94
2022-08-02T15:18:14.911Z,97514.00
2022-08-02T15:20:50.771Z,97512.59
2022-08-02T15:23:37.575Z,97512.47
2022-08-02T15:26:07.414Z,97511.75
2022-08-02T15:28:35.737Z,97502.34
2022-08-02T15:31:04.422Z,97503.47
2022-08-02T15:33:32.948Z,97504.94
2022-08-02T15:36:01.565Z,97507.81
2022-08-02T15:38:31.210Z,97508.41
2022-08-02T15:40:59.509Z,97502.53
2022-08-02T15:43:27.783Z,97494.03
2022-08-02T15:46:14.672Z,97494.19
2022-08-02T15:48:43.394Z,97503.59
2022-08-02T15:51:12.026Z,97498.47
2022-08-02T15:53:41.704Z,97494.09
2022-08-02T15:56:13.045Z,97505.09
2022-08-02T15:58:42.562Z,97504.13
2022-08-02T16:01:13.004Z,97500.41
2022-08-02T16:03:41.401Z,97505.63
2022-08-02T16:06:09.684Z,97507.94
2022-08-02T16:08:38.285Z,97502.00
2022-08-02T16:11:17.523Z,97498.66
2022-08-02T16:13:54.884Z,97496.03
2022-08-02T16:16:23.636Z,97493.25
2022-08-02T16:18:52.062Z,97490.66
2022-08-02T16:21:20.658Z,97485.22
2022-08-02T16:24:00.472Z,97488.09
2022-08-02T16:26:33.278Z,97479.34
2022-08-02T16:29:01.796Z,97494.16
2022-08-02T16:31:30.073Z,97480.84
2022-08-02T16:33:58.668Z,97498.28
2022-08-02T16:36:27.344Z,97478.28
2022-08-02T16:38:55.695Z,97478.69
2022-08-02T16:41:24.117Z,97481.03
2022-08-02T16:44:13.798Z,97473.47
2022-08-02T16:46:45.125Z,97463.72
2022-08-02T16:50:06.078Z,97467.22
2022-08-02T16:52:02.352Z,97467.38
2022-08-02T16:54:31.055Z,97474.34
2022-08-02T16:56:59.336Z,97470.72
2022-08-02T16:59:34.050Z,97470.03
2022-08-02T17:02:15.135Z,97469.72
2022-08-02T17:04:53.098Z,97469.91
2022-08-02T17:07:21.372Z,97464.41
2022-08-02T17:10:10.224Z,97462.47
2022-08-02T17:12:38.880Z,97470.06
2022-08-02T17:15:53.028Z,97465.16
2022-08-02T17:17:58.158Z,97463.28
2022-08-02T17:20:26.608Z,97457.25
2022-08-02T17:22:54.923Z,97458.66
2022-08-02T17:25:24.791Z,97464.56
2022-08-02T17:27:55.985Z,97464.00
2022-08-02T17:30:26.882Z,97462.59
2022-08-02T17:33:13.985Z,97453.50
2022-08-02T17:35:51.991Z,97453.06
2022-08-02T17:41:15.255Z,97456.63
2022-08-02T17:43:44.153Z,97452.22
2022-08-02T17:46:14.368Z,97456.06
2022-08-02T17:48:56.922Z,97451.53
2022-08-02T17:52:16.115Z,97452.38
2022-08-02T17:54:18.743Z,97452.00
2022-08-02T17:56:47.322Z,97453.22
2022-08-02T17:59:20.909Z,97453.19
2022-08-02T18:01:54.314Z,97449.16
2022-08-02T18:04:27.450Z,97447.84
2022-08-02T18:06:57.250Z,97452.53
2022-08-02T18:09:26.059Z,97450.34
2022-08-02T18:11:55.150Z,97457.06
2022-08-02T18:14:24.470Z,97444.84
2022-08-02T18:16:56.441Z,97448.00
2022-08-02T18:19:42.651Z,97450.34
2022-08-02T18:22:14.634Z,97451.94
2022-08-02T18:24:44.921Z,97453.38
2022-08-02T18:27:14.225Z,97458.75
2022-08-02T18:29:42.484Z,97460.66
2022-08-02T18:32:12.479Z,97460.53
2022-08-02T18:34:40.962Z,97463.97
2022-08-02T18:37:15.985Z,97455.50
2022-08-02T18:39:51.421Z,97460.41
2022-08-02T18:42:20.198Z,97458.88
2022-08-02T18:44:48.791Z,97455.53
2022-08-02T18:47:18.441Z,97454.19
2022-08-02T18:49:51.506Z,97461.59
2022-08-02T18:52:31.432Z,97463.78
2022-08-02T18:55:00.410Z,97463.13
2022-08-02T18:58:17.527Z,97467.69
2022-08-02T19:00:20.479Z,97468.50
2022-08-02T19:02:50.409Z,97465.84
2022-08-02T19:05:21.126Z,97462.00
2022-08-02T19:07:49.776Z,97470.06
2022-08-02T19:10:19.856Z,97462.91
2022-08-02T19:12:51.590Z,97467.41
2022-08-02T19:15:20.442Z,97470.63
2022-08-02T19:17:55.673Z,97468.81
2022-08-02T19:20:25.544Z,97471.94
2022-08-02T19:22:54.323Z,97471.03
2022-08-02T19:25:27.849Z,97471.09
2022-08-02T19:27:57.591Z,97470.53
2022-08-02T19:30:27.772Z,97477.28
2022-08-02T19:32:58.950Z,97471.41
2022-08-02T19:35:29.508Z,97482.84
2022-08-02T19:38:07.593Z,97476.13
2022-08-02T19:40:56.321Z,97481.22
2022-08-02T19:44:25.692Z,97483.53
2022-08-02T19:46:15.899Z,97477.41
2022-08-02T19:48:47.435Z,97486.53
2022-08-02T19:51:16.174Z,97484.47
2022-08-02T19:54:04.392Z,97486.22
2022-08-02T19:56:32.839Z,97492.56
2022-08-02T19:59:12.959Z,97500.22
2022-08-02T20:01:48.505Z,97497.09
2022-08-02T20:07:11.689Z,97504.63
2022-08-02T20:09:53.190Z,97503.34
2022-08-02T20:12:21.753Z,97505.47
2022-08-02T20:14:51.079Z,97505.25
2022-08-02T20:17:20.914Z,97506.94
2022-08-02T20:19:51.363Z,97509.31
2022-08-02T20:22:20.557Z,97511.22
2022-08-02T20:24:49.004Z,97511.03
2022-08-02T20:27:23.044Z,97515.03
2022-08-02T20:29:52.474Z,97513.56
2022-08-02T20:32:38.235Z,97509.41
2022-08-02T20:35:08.710Z,97514.44
2022-08-02T20:38:00.972Z,97513.63
2022-08-02T20:40:25.593Z,97503.97
2022-08-02T20:42:54.266Z,97508.19
2022-08-02T20:45:23.330Z,97511.56
2022-08-02T20:48:00.056Z,97508.22
2022-08-02T20:50:44.023Z,97518.28
2022-08-02T20:53:23.798Z,97518.09
2022-08-02T20:55:55.958Z,97519.78
2022-08-02T20:58:26.540Z,97513.88
2022-08-02T21:00:59.450Z,97507.78
2022-08-02T21:03:39.144Z,97513.69
2022-08-02T21:06:11.544Z,97516.19
2022-08-02T21:08:45.978Z,97513.69
2022-08-02T21:11:15.296Z,97519.59
2022-08-02T21:13:47.227Z,97507.38
2022-08-02T21:16:31.866Z,97518.50
2022-08-02T21:19:02.503Z,97520.22
2022-08-02T21:21:32.162Z,97517.47
2022-08-02T21:24:01.521Z,97506.53
2022-08-02T21:26:31.123Z,97508.22
2022-08-02T21:29:03.674Z,97509.06
2022-08-02T21:31:35.665Z,97512.84
2022-08-02T21:34:21.865Z,97517.25
2022-08-02T21:36:54.043Z,97518.94
2022-08-02T21:39:22.486Z,97517.63
2022-08-02T21:41:51.334Z,97518.88
2022-08-02T21:44:21.033Z,97523.69
2022-08-02T21:46:50.245Z,97522.00
2022-08-02T21:49:20.075Z,97523.03
2022-08-02T21:51:49.406Z,97519.03
2022-08-02T21:54:21.181Z,97527.19
2022-08-02T21:56:52.266Z,97525.75
2022-08-02T21:59:26.344Z,97530.75
2022-08-02T22:01:56.778Z,97530.56
2022-08-02T22:04:26.187Z,97525.28
2022-08-02T22:06:55.373Z,97524.22
2022-08-02T22:09:44.309Z,97533.25
2022-08-02T22:12:18.319Z,97529.84
2022-08-02T22:14:53.718Z,97532.56
2022-08-02T22:17:52.007Z,97529.19
2022-08-02T22:20:13.747Z,97533.06
2022-08-02T22:22:42.328Z,97534.81
2022-08-02T22:25:21.432Z,97533.78
2022-08-02T22:28:11.917Z,97536.25
2022-08-02T22:33:59.909Z,97539.06
2022-08-02T22:36:30.065Z,97536.50
2022-08-02T22:38:58.646Z,97536.53
2022-08-02T22:42:06.428Z,97539.72
2022-08-02T22:44:18.414Z,97537.16
2022-08-02T22:49:38.656Z,97538.81
2022-08-02T22:52:20.992Z,97539.22
2022-08-02T22:54:49.541Z,97541.13
2022-08-02T22:58:39.406Z,97452.66
2022-08-02T22:58:54.319Z,97505.38
2022-08-02T22:59:09.787Z,97536.31
2022-08-02T22:59:10.024Z,97542.97
2022-08-02T22:59:10.864Z,97534.56
2022-08-02T23:00:10.174Z,97542.13
2022-08-02T23:02:38.578Z,97541.47
2022-08-02T23:05:07.163Z,97545.41
2022-08-02T23:07:37.031Z,97542.91
2022-08-02T23:10:08.138Z,97543.31
2022-08-02T23:12:37.910Z,97547.72
2022-08-02T23:15:06.660Z,97540.78
2022-08-02T23:17:49.081Z,97533.84
2022-08-02T23:20:21.258Z,97532.78
2022-08-02T23:22:49.536Z,97539.50
2022-08-02T23:25:18.137Z,97536.16
2022-08-02T23:27:50.466Z,97545.28
2022-08-02T23:30:18.990Z,97544.84
2022-08-02T23:32:47.559Z,97544.84
2022-08-02T23:35:16.895Z,97537.47
2022-08-02T23:38:00.375Z,97540.09
2022-08-02T23:40:39.153Z,97540.50
2022-08-02T23:43:13.641Z,97539.25
2022-08-02T23:45:45.475Z,97540.50
2022-08-02T23:48:13.819Z,97540.25
2022-08-02T23:50:42.395Z,97533.38
2022-08-02T23:53:10.648Z,97534.41
2022-08-02T23:55:38.936Z,97534.84
2022-08-02T23:58:07.185Z,97532.97
